Time;durP1;ratioP1;P1;durP2;ratioP2;P2;SDS_P1;SDS_P2;PMS_P1;PMS_P2;Temp;Humidity;BMP_temperature;BMP_pressure;BME280_temperature;BME280_humidity;BME280_pressure;Samples;Min_cycle;Max_cycle;Signal;HPM_P1;HPM_P2
2023/09/21 00:00:48;;;;;;;0.30;0.30;;;22.30;75.20;;;;;;5057211;28;20057;-76
2023/09/21 00:03:14;;;;;;;0.40;0.40;;;22.30;75.20;;;;;;5064284;28;20053;-76
2023/09/21 00:05:40;;;;;;;0.38;0.30;;;22.30;75.20;;;;;;5063038;28;20045;-76
2023/09/21 00:08:06;;;;;;;0.47;0.40;;;22.30;75.20;;;;;;5063007;28;20061;-76
2023/09/21 00:10:33;;;;;;;0.57;0.40;;;22.30;75.10;;;;;;5061064;28;20506;-76
2023/09/21 00:12:59;;;;;;;0.38;0.38;;;22.30;75.20;;;;;;5055989;28;20123;-76
2023/09/21 00:15:29;;;;;;;0.70;0.43;;;22.30;75.10;;;;;;5040307;28;20128;-76
2023/09/21 00:17:59;;;;;;;0.30;0.30;;;22.30;75.00;;;;;;5058355;28;20200;-76
2023/09/21 00:20:28;;;;;;;0.45;0.40;;;22.30;75.10;;;;;;5066242;28;20056;-76
2023/09/21 00:22:54;;;;;;;0.68;0.45;;;22.30;75.10;;;;;;5056457;28;20049;-76
2023/09/21 00:25:22;;;;;;;0.40;0.30;;;22.30;75.00;;;;;;5062452;28;20043;-76
2023/09/21 00:27:48;;;;;;;0.40;0.40;;;22.30;75.00;;;;;;5063486;28;20120;-76
2023/09/21 00:30:14;;;;;;;0.40;0.20;;;22.30;75.10;;;;;;5060967;28;20570;-76
2023/09/21 00:32:40;;;;;;;0.30;0.30;;;22.30;75.10;;;;;;5059567;28;20045;-76
2023/09/21 00:35:09;;;;;;;0.30;0.30;;;22.30;75.10;;;;;;5058887;28;20059;-76
2023/09/21 00:37:36;;;;;;;0.45;0.30;;;22.30;75.10;;;;;;5058698;28;20501;-76
2023/09/21 00:40:13;;;;;;;1.67;0.30;;;22.30;75.10;;;;;;5061707;28;20063;-76
2023/09/21 00:42:39;;;;;;;0.43;0.40;;;22.30;75.10;;;;;;5061125;28;20040;-76
2023/09/21 00:45:08;;;;;;;2.33;0.30;;;22.30;75.00;;;;;;5061698;28;20037;-76
2023/09/21 00:47:39;;;;;;;0.52;0.40;;;22.30;75.10;;;;;;5063808;28;20517;-76
2023/09/21 00:50:09;;;;;;;0.38;0.30;;;22.30;75.10;;;;;;5060730;28;20040;-76
2023/09/21 00:52:35;;;;;;;0.25;0.25;;;22.30;75.00;;;;;;5055502;28;20052;-76
2023/09/21 00:55:01;;;;;;;0.28;0.28;;;22.30;74.90;;;;;;5061469;28;20047;-76
2023/09/21 00:57:26;;;;;;;0.35;0.30;;;22.30;74.90;;;;;;5063307;28;20048;-76
2023/09/21 00:59:52;;;;;;;0.43;0.30;;;22.30;74.80;;;;;;5062159;28;20053;-76
2023/09/21 01:02:18;;;;;;;0.30;0.20;;;22.30;74.90;;;;;;5057690;28;20106;-76
2023/09/21 01:04:44;;;;;;;0.73;0.50;;;22.20;75.00;;;;;;5043200;28;20420;-76
2023/09/21 01:07:17;;;;;;;0.30;0.22;;;22.20;74.90;;;;;;5061213;28;20044;-76
2023/09/21 01:09:44;;;;;;;0.20;0.20;;;22.30;75.00;;;;;;5060356;28;20116;-76
2023/09/21 01:12:13;;;;;;;0.32;0.30;;;22.20;74.80;;;;;;5060735;28;20048;-76
2023/09/21 01:14:38;;;;;;;0.30;0.30;;;22.30;74.80;;;;;;5061112;28;20458;-76
2023/09/21 01:17:04;;;;;;;0.30;0.30;;;22.20;74.90;;;;;;5064764;28;20074;-76
2023/09/21 01:19:29;;;;;;;0.20;0.20;;;22.20;75.00;;;;;;5061378;28;20044;-76
2023/09/21 01:21:55;;;;;;;0.40;0.40;;;22.20;75.10;;;;;;5061180;28;20056;-76
2023/09/21 01:24:23;;;;;;;0.63;0.40;;;22.20;75.10;;;;;;5059825;28;20051;-76
2023/09/21 01:26:48;;;;;;;0.47;0.30;;;22.20;75.20;;;;;;5061522;28;20537;-76
2023/09/21 01:29:14;;;;;;;0.35;0.30;;;22.20;75.20;;;;;;5059788;28;20064;-76
2023/09/21 01:31:40;;;;;;;1.42;0.30;;;22.20;75.00;;;;;;5056421;28;20056;-76
2023/09/21 01:34:05;;;;;;;0.45;0.30;;;22.20;74.80;;;;;;5051666;28;20047;-76
2023/09/21 01:36:32;;;;;;;0.63;0.32;;;22.20;74.80;;;;;;5059651;28;20043;-76
2023/09/21 01:38:58;;;;;;;1.05;0.30;;;22.20;74.90;;;;;;5060998;28;20076;-76
2023/09/21 01:41:24;;;;;;;0.47;0.30;;;22.20;74.70;;;;;;5061933;28;20041;-76
2023/09/21 01:43:49;;;;;;;0.40;0.30;;;22.20;75.50;;;;;;5060504;28;20047;-76
2023/09/21 01:46:21;;;;;;;0.30;0.30;;;22.20;74.70;;;;;;5064195;28;20591;-76
2023/09/21 01:48:46;;;;;;;0.30;0.30;;;22.20;74.80;;;;;;5061434;28;20048;-76
2023/09/21 01:51:12;;;;;;;0.30;0.30;;;22.20;74.70;;;;;;5061967;28;20119;-75
2023/09/21 01:53:38;;;;;;;0.55;0.30;;;22.20;74.60;;;;;;5058771;28;20473;-76
2023/09/21 01:56:04;;;;;;;0.35;0.35;;;22.20;74.70;;;;;;5063844;28;20041;-76
2023/09/21 01:58:29;;;;;;;0.40;0.28;;;22.20;74.60;;;;;;5058116;28;20048;-76
2023/09/21 02:00:55;;;;;;;0.20;0.20;;;22.20;74.70;;;;;;5058537;28;20059;-76
2023/09/21 02:03:28;;;;;;;0.50;0.40;;;22.20;74.60;;;;;;5058089;28;20045;-76
2023/09/21 02:05:57;;;;;;;1.13;0.20;;;22.20;74.70;;;;;;5062691;28;20100;-76
2023/09/21 02:08:23;;;;;;;0.32;0.32;;;22.20;74.60;;;;;;5064465;28;20131;-76
2023/09/21 02:10:50;;;;;;;0.47;0.30;;;22.20;74.50;;;;;;5062598;28;20127;-76
2023/09/21 02:13:16;;;;;;;0.40;0.30;;;22.20;74.40;;;;;;5062434;28;20498;-76
2023/09/21 02:15:43;;;;;;;0.75;0.75;;;22.20;74.40;;;;;;5062480;28;20036;-76
2023/09/21 02:18:09;;;;;;;0.20;0.20;;;22.20;74.40;;;;;;5062288;28;20099;-76
2023/09/21 02:20:35;;;;;;;0.30;0.30;;;22.30;74.40;;;;;;5066993;28;20049;-76
2023/09/21 02:23:02;;;;;;;0.22;0.20;;;22.20;74.50;;;;;;5055669;28;22175;-76
2023/09/21 02:25:30;;;;;;;0.40;0.40;;;22.20;74.50;;;;;;5055936;28;20051;-76
2023/09/21 02:27:55;;;;;;;0.55;0.40;;;22.20;74.30;;;;;;5065043;28;20528;-76
2023/09/21 02:30:21;;;;;;;0.40;0.32;;;22.20;74.20;;;;;;5057060;28;20033;-76
2023/09/21 02:32:50;;;;;;;0.28;0.28;;;22.20;74.20;;;;;;5055041;28;20119;-76
2023/09/21 02:35:19;;;;;;;0.35;0.35;;;22.20;74.20;;;;;;5048128;28;20036;-76
2023/09/21 02:37:48;;;;;;;0.35;0.30;;;22.20;74.20;;;;;;5057782;28;20048;-76
2023/09/21 02:40:17;;;;;;;0.25;0.25;;;22.20;74.10;;;;;;5062125;28;20037;-76
2023/09/21 02:42:52;;;;;;;0.52;0.30;;;22.20;74.10;;;;;;5062041;28;20201;-76
2023/09/21 02:45:18;;;;;;;0.32;0.32;;;22.20;74.20;;;;;;5060987;28;20053;-76
2023/09/21 02:47:44;;;;;;;0.30;0.30;;;22.20;74.30;;;;;;5062548;28;21469;-76
2023/09/21 02:50:21;;;;;;;0.50;0.40;;;22.20;74.20;;;;;;5064318;28;20476;-76
2023/09/21 02:53:02;;;;;;;0.35;0.35;;;22.20;74.20;;;;;;5057873;28;20459;-76
2023/09/21 02:55:28;;;;;;;0.40;0.40;;;22.20;74.40;;;;;;5061454;28;20044;-76
2023/09/21 02:57:55;;;;;;;0.50;0.38;;;22.20;74.30;;;;;;5062592;28;20382;-75
2023/09/21 03:00:23;;;;;;;0.30;0.30;;;22.20;74.10;;;;;;5062992;28;20063;-76
2023/09/21 03:02:50;;;;;;;0.50;0.50;;;22.20;74.10;;;;;;5062316;28;20033;-76
2023/09/21 03:05:16;;;;;;;0.50;0.40;;;22.20;74.10;;;;;;5064128;28;20043;-76
2023/09/21 03:07:43;;;;;;;0.50;0.32;;;22.20;73.90;;;;;;5060847;28;20033;-76
2023/09/21 03:10:10;;;;;;;0.70;0.40;;;22.20;73.90;;;;;;5061047;28;20340;-76
2023/09/21 03:12:37;;;;;;;0.57;0.57;;;22.20;73.90;;;;;;5065146;28;20040;-76
2023/09/21 03:15:06;;;;;;;0.22;0.20;;;22.20;73.90;;;;;;5056806;28;20511;-76
2023/09/21 03:17:33;;;;;;;0.30;0.20;;;22.20;73.80;;;;;;5063858;28;20042;-76
2023/09/21 03:20:00;;;;;;;0.32;0.30;;;22.20;73.80;;;;;;5061415;28;20049;-76
2023/09/21 03:22:26;;;;;;;0.43;0.30;;;22.20;73.70;;;;;;5059281;28;20055;-76
2023/09/21 03:24:55;;;;;;;0.40;0.38;;;22.10;73.80;;;;;;5061174;28;20049;-76
2023/09/21 03:27:23;;;;;;;0.30;0.30;;;22.20;73.90;;;;;;5064194;28;20040;-76
2023/09/21 03:29:49;;;;;;;0.55;0.30;;;22.20;73.90;;;;;;5060915;28;20048;-76
2023/09/21 03:32:15;;;;;;;0.30;0.30;;;22.20;73.80;;;;;;5059740;28;20071;-76
2023/09/21 03:34:40;;;;;;;0.50;0.50;;;22.10;73.80;;;;;;5056372;28;20114;-76
2023/09/21 03:37:06;;;;;;;0.32;0.32;;;22.20;73.80;;;;;;5063883;28;20037;-76
2023/09/21 03:39:32;;;;;;;0.28;0.28;;;22.20;73.70;;;;;;5062512;28;20037;-76
2023/09/21 03:41:58;;;;;;;0.40;0.30;;;22.20;73.80;;;;;;5062644;28;20520;-76
2023/09/21 03:44:24;;;;;;;0.40;0.30;;;22.20;74.20;;;;;;5064991;28;20051;-76
2023/09/21 03:46:49;;;;;;;0.68;0.40;;;22.20;73.70;;;;;;5065424;28;20063;-76
2023/09/21 03:49:15;;;;;;;0.30;0.30;;;22.20;73.70;;;;;;5060903;28;20045;-76
2023/09/21 03:51:41;;;;;;;0.30;0.30;;;22.20;73.80;;;;;;5056918;28;20094;-76
2023/09/21 03:54:07;;;;;;;0.38;0.38;;;22.20;73.80;;;;;;5057292;28;20072;-76
2023/09/21 03:56:36;;;;;;;0.45;0.45;;;22.20;73.60;;;;;;5092396;28;20041;-76
2023/09/21 03:59:02;;;;;;;0.20;0.20;;;22.20;73.60;;;;;;5060585;28;20137;-76
2023/09/21 04:01:29;;;;;;;0.30;0.30;;;22.20;73.50;;;;;;5047966;28;20569;-76
2023/09/21 04:03:55;;;;;;;0.30;0.30;;;22.20;73.40;;;;;;5063598;28;20429;-76
2023/09/21 04:06:21;;;;;;;0.45;0.30;;;22.20;73.30;;;;;;5059237;28;20541;-76
2023/09/21 04:08:46;;;;;;;0.35;0.30;;;22.20;73.40;;;;;;5050081;28;20036;-76
2023/09/21 04:11:13;;;;;;;0.55;0.40;;;22.20;73.30;;;;;;5062372;28;20048;-76
2023/09/21 04:13:38;;;;;;;0.40;0.40;;;22.20;73.20;;;;;;5057691;28;20029;-76
2023/09/21 04:16:05;;;;;;;0.20;0.20;;;22.20;73.30;;;;;;5060744;28;20044;-76
2023/09/21 04:18:31;;;;;;;0.52;0.30;;;22.20;73.20;;;;;;5061622;28;20380;-76
2023/09/21 04:20:57;;;;;;;0.30;0.30;;;22.20;73.20;;;;;;5061708;28;20988;-76
2023/09/21 04:23:24;;;;;;;0.40;0.40;;;22.20;73.20;;;;;;5059212;28;20411;-76
2023/09/21 04:25:50;;;;;;;0.25;0.25;;;22.20;73.10;;;;;;5057071;28;20494;-76
2023/09/21 04:28:15;;;;;;;0.30;0.22;;;22.20;73.10;;;;;;5062019;28;20043;-76
2023/09/21 04:30:41;;;;;;;1.30;0.45;;;22.20;73.60;;;;;;5061194;28;20044;-76
2023/09/21 04:33:07;;;;;;;0.40;0.40;;;22.20;73.60;;;;;;5058956;28;20505;-76
2023/09/21 04:35:32;;;;;;;0.38;0.30;;;22.20;73.80;;;;;;5061458;28;20398;-76
2023/09/21 04:37:58;;;;;;;0.20;0.20;;;22.20;73.60;;;;;;5058595;28;20043;-76
2023/09/21 04:40:26;;;;;;;0.40;0.30;;;22.20;74.60;;;;;;5059432;28;20126;-76
2023/09/21 04:42:51;;;;;;;0.25;0.25;;;22.20;73.70;;;;;;5060895;28;20047;-76
2023/09/21 04:45:18;;;;;;;0.43;0.40;;;22.20;74.40;;;;;;5057941;28;20037;-76
2023/09/21 04:47:45;;;;;;;0.30;0.30;;;22.20;74.00;;;;;;5061376;28;20037;-76
2023/09/21 04:50:14;;;;;;;0.73;0.30;;;22.20;73.90;;;;;;5060243;28;20041;-76
2023/09/21 04:52:40;;;;;;;0.28;0.28;;;22.20;74.00;;;;;;5060110;28;20045;-76
2023/09/21 04:55:08;;;;;;;0.30;0.30;;;22.20;73.90;;;;;;5056823;28;20037;-77
2023/09/21 04:57:34;;;;;;;0.30;0.20;;;22.20;73.80;;;;;;5064222;28;20412;-77
2023/09/21 05:00:00;;;;;;;0.20;0.20;;;22.30;74.00;;;;;;5061893;28;20044;-76
2023/09/21 05:02:26;;;;;;;0.20;0.20;;;22.30;73.90;;;;;;5061445;28;20132;-76
2023/09/21 05:04:52;;;;;;;0.30;0.30;;;22.20;73.80;;;;;;5055978;28;20098;-76
2023/09/21 05:07:18;;;;;;;0.30;0.22;;;22.20;73.90;;;;;;5062227;28;20488;-76
2023/09/21 05:09:44;;;;;;;0.40;0.30;;;22.20;73.80;;;;;;5063442;28;20125;-76
2023/09/21 05:12:10;;;;;;;0.20;0.20;;;22.20;73.90;;;;;;5062630;28;20053;-76
2023/09/21 05:14:37;;;;;;;0.50;0.20;;;22.20;73.90;;;;;;5061990;28;20498;-76
2023/09/21 05:17:05;;;;;;;0.30;0.20;;;22.20;73.80;;;;;;5059514;28;20051;-76
2023/09/21 05:19:34;;;;;;;0.30;0.20;;;22.20;73.80;;;;;;5060655;28;20422;-76
2023/09/21 05:22:04;;;;;;;0.20;0.20;;;22.20;73.80;;;;;;5065268;28;20113;-76
2023/09/21 05:24:30;;;;;;;0.20;0.20;;;22.20;73.80;;;;;;5063180;28;20052;-76
2023/09/21 05:26:55;;;;;;;0.30;0.20;;;22.20;73.90;;;;;;5062841;28;20049;-76
2023/09/21 05:29:21;;;;;;;0.30;0.30;;;22.20;73.80;;;;;;5066065;28;20064;-76
2023/09/21 05:31:48;;;;;;;0.40;0.40;;;22.20;73.80;;;;;;5051105;28;20427;-76
2023/09/21 05:34:13;;;;;;;0.55;0.40;;;22.20;73.80;;;;;;5056541;28;20176;-77
2023/09/21 05:36:39;;;;;;;1.67;0.50;;;22.10;70.90;;;;;;5054621;28;20131;-76
2023/09/21 05:39:05;;;;;;;0.45;0.45;;;22.00;69.50;;;;;;5063000;28;20091;-77
2023/09/21 05:41:31;;;;;;;0.47;0.40;;;21.80;69.40;;;;;;5067192;28;20044;-77
2023/09/21 05:43:57;;;;;;;1.30;0.73;;;21.60;69.60;;;;;;5053430;28;20047;-78
2023/09/21 05:46:23;;;;;;;0.80;0.40;;;21.50;68.90;;;;;;5056353;28;20049;-78
2023/09/21 05:48:48;;;;;;;0.65;0.60;;;21.40;68.80;;;;;;5042704;28;20021;-77
2023/09/21 05:51:14;;;;;;;0.90;0.47;;;21.30;68.70;;;;;;5060175;28;20656;-77
2023/09/21 05:53:40;;;;;;;0.90;0.60;;;21.30;69.00;;;;;;5063930;28;20137;-76
2023/09/21 05:56:05;;;;;;;1.00;0.80;;;21.20;69.00;;;;;;5058759;28;20045;-77
2023/09/21 05:58:31;;;;;;;0.43;0.40;;;21.20;69.00;;;;;;5059503;28;20079;-76
2023/09/21 06:00:59;;;;;;;1.08;0.55;;;21.20;69.30;;;;;;5058104;28;20032;-75
2023/09/21 06:03:26;;;;;;;0.50;0.50;;;21.20;68.90;;;;;;5062120;28;20036;-76
2023/09/21 06:05:52;;;;;;;0.40;0.40;;;20.90;69.60;;;;;;5058141;28;20488;-76
2023/09/21 06:08:19;;;;;;;0.95;0.50;;;20.60;70.30;;;;;;5059712;28;20120;-75
2023/09/21 06:10:45;;;;;;;1.00;0.40;;;20.60;70.80;;;;;;5056954;28;20039;-75
2023/09/21 06:13:12;;;;;;;1.25;0.70;;;20.50;70.70;;;;;;5051109;28;20410;-74
2023/09/21 06:15:47;;;;;;;0.70;0.40;;;20.50;71.00;;;;;;5062382;28;20044;-76
2023/09/21 06:18:14;;;;;;;0.75;0.45;;;20.40;71.40;;;;;;5058376;28;20510;-74
2023/09/21 06:20:41;;;;;;;0.77;0.50;;;20.30;71.80;;;;;;5063706;28;20048;-74
2023/09/21 06:23:07;;;;;;;1.50;0.50;;;20.30;71.90;;;;;;5063763;28;20516;-74
2023/09/21 06:25:34;;;;;;;1.77;0.50;;;20.30;71.40;;;;;;5063200;28;20044;-74
2023/09/21 06:28:00;;;;;;;0.70;0.50;;;20.30;72.00;;;;;;5058205;28;20047;-75
2023/09/21 06:30:25;;;;;;;0.77;0.40;;;20.10;72.20;;;;;;5054383;28;20037;-74
2023/09/21 06:32:51;;;;;;;0.77;0.40;;;20.10;72.20;;;;;;5059309;28;20094;-75
2023/09/21 06:35:16;;;;;;;1.27;0.50;;;19.90;72.60;;;;;;5055329;28;20037;-75
2023/09/21 06:37:42;;;;;;;2.35;0.50;;;19.80;73.20;;;;;;5056617;28;20063;-72
2023/09/21 06:40:09;;;;;;;2.95;0.65;;;19.80;73.20;;;;;;5059111;28;20036;-75
2023/09/21 06:42:34;;;;;;;2.17;0.90;;;19.90;73.30;;;;;;5062488;28;20048;-74
2023/09/21 06:45:00;;;;;;;0.65;0.47;;;20.20;72.30;;;;;;5058036;28;20043;-74
2023/09/21 06:47:28;;;;;;;1.42;0.95;;;20.30;71.70;;;;;;5059917;28;20049;-73
2023/09/21 06:49:54;;;;;;;0.73;0.70;;;20.50;71.60;;;;;;5057364;28;20041;-76
2023/09/21 06:52:21;;;;;;;1.77;0.90;;;20.60;71.50;;;;;;5048709;28;20041;-76
2023/09/21 06:54:48;;;;;;;0.52;0.47;;;20.70;71.50;;;;;;5056400;28;20048;-76
2023/09/21 06:57:15;;;;;;;2.55;0.85;;;20.80;71.40;;;;;;5060643;28;20059;-76
2023/09/21 06:59:41;;;;;;;0.47;0.45;;;20.90;71.40;;;;;;5059570;28;20090;-75
2023/09/21 07:02:07;;;;;;;0.82;0.50;;;21.00;71.30;;;;;;5060433;28;20053;-76
2023/09/21 07:04:36;;;;;;;0.73;0.73;;;21.10;71.40;;;;;;5057931;28;20028;-76
2023/09/21 07:07:04;;;;;;;1.55;0.40;;;21.10;71.30;;;;;;5059726;28;24333;-76
2023/09/21 07:09:31;;;;;;;0.70;0.60;;;21.20;71.60;;;;;;5064417;28;20406;-76
2023/09/21 07:11:56;;;;;;;1.00;0.60;;;21.20;71.90;;;;;;5057154;28;20134;-76
2023/09/21 07:14:22;;;;;;;0.88;0.38;;;21.20;72.10;;;;;;5064273;28;20529;-76
2023/09/21 07:16:48;;;;;;;1.15;0.70;;;21.30;72.20;;;;;;5062095;28;20048;-76
2023/09/21 07:19:14;;;;;;;1.73;0.60;;;21.30;72.40;;;;;;5061200;28;20056;-76
2023/09/21 07:21:40;;;;;;;1.88;0.40;;;21.30;72.30;;;;;;5062960;28;20041;-75
2023/09/21 07:24:07;;;;;;;0.60;0.50;;;21.30;72.40;;;;;;5060985;28;20691;-76
2023/09/21 07:26:33;;;;;;;0.68;0.40;;;21.30;72.40;;;;;;5064011;28;20064;-76
2023/09/21 07:29:05;;;;;;;0.98;0.50;;;21.30;72.50;;;;;;5062267;28;20067;-75
2023/09/21 07:31:33;;;;;;;0.65;0.35;;;21.40;72.60;;;;;;5062328;28;20524;-75
2023/09/21 07:33:59;;;;;;;0.40;0.40;;;21.40;72.30;;;;;;5061249;28;20043;-75
2023/09/21 07:36:24;;;;;;;1.13;0.40;;;21.40;72.40;;;;;;5064443;28;20040;-75
2023/09/21 07:38:53;;;;;;;1.88;0.50;;;21.40;72.40;;;;;;5063779;28;20070;-75
2023/09/21 07:41:19;;;;;;;1.90;0.52;;;21.40;72.30;;;;;;5066198;28;20128;-75
2023/09/21 07:43:45;;;;;;;0.68;0.35;;;21.40;72.40;;;;;;5064343;28;20484;-75
2023/09/21 07:46:11;;;;;;;0.55;0.30;;;21.40;72.30;;;;;;5062640;28;20094;-75
2023/09/21 07:48:36;;;;;;;0.60;0.30;;;21.40;72.30;;;;;;5061491;28;20037;-75
2023/09/21 07:51:06;;;;;;;0.73;0.38;;;21.40;72.30;;;;;;5061239;28;20576;-75
2023/09/21 07:53:32;;;;;;;0.70;0.40;;;21.40;72.30;;;;;;5064517;28;20055;-75
2023/09/21 07:55:59;;;;;;;1.88;0.35;;;21.40;72.30;;;;;;5061345;28;20089;-75
2023/09/21 07:58:25;;;;;;;0.38;0.38;;;21.50;72.30;;;;;;5061426;28;20105;-75
2023/09/21 08:00:53;;;;;;;0.52;0.47;;;21.40;72.30;;;;;;5062074;28;20033;-75
2023/09/21 08:03:18;;;;;;;0.90;0.47;;;21.50;72.30;;;;;;5059516;28;20135;-75
2023/09/21 08:05:44;;;;;;;0.35;0.35;;;21.50;72.40;;;;;;5065535;28;20475;-75
2023/09/21 08:08:09;;;;;;;0.68;0.50;;;21.50;72.40;;;;;;5062377;28;20054;-75
2023/09/21 08:10:35;;;;;;;0.50;0.30;;;21.50;72.40;;;;;;5059245;28;20056;-75
2023/09/21 08:13:01;;;;;;;2.53;0.50;;;21.40;72.30;;;;;;5058590;28;20063;-75
2023/09/21 08:15:27;;;;;;;0.52;0.38;;;21.50;72.40;;;;;;5061841;28;20048;-75
2023/09/21 08:17:53;;;;;;;0.80;0.35;;;21.50;72.30;;;;;;5060144;28;20123;-75
2023/09/21 08:20:22;;;;;;;0.73;0.40;;;21.50;72.30;;;;;;5064377;28;20074;-75
2023/09/21 08:22:49;;;;;;;0.60;0.50;;;21.50;72.20;;;;;;5062286;28;20049;-75
2023/09/21 08:25:15;;;;;;;0.25;0.25;;;21.60;72.10;;;;;;5059252;28;20425;-75
2023/09/21 08:27:40;;;;;;;0.70;0.40;;;21.60;72.00;;;;;;5060694;28;20044;-75
2023/09/21 08:30:08;;;;;;;2.80;0.30;;;21.60;72.00;;;;;;5059788;28;20051;-75
2023/09/21 08:32:34;;;;;;;0.20;0.20;;;21.60;72.00;;;;;;5065633;28;20106;-75
2023/09/21 08:35:00;;;;;;;0.30;0.28;;;21.60;72.00;;;;;;5059567;28;20064;-75
2023/09/21 08:37:25;;;;;;;1.65;0.45;;;21.70;72.10;;;;;;5061179;28;20498;-74
2023/09/21 08:39:51;;;;;;;0.30;0.30;;;21.70;72.00;;;;;;5060291;28;20033;-74
2023/09/21 08:42:16;;;;;;;0.40;0.40;;;21.70;72.40;;;;;;5061864;28;20449;-74
2023/09/21 08:44:43;;;;;;;0.52;0.32;;;21.70;72.30;;;;;;5061710;28;20037;-75
2023/09/21 08:47:15;;;;;;;0.40;0.30;;;21.70;73.00;;;;;;5059533;28;20045;-75
2023/09/21 08:49:47;;;;;;;0.80;0.40;;;21.70;72.90;;;;;;5044122;28;20052;-76
2023/09/21 08:52:13;;;;;;;0.85;0.40;;;21.80;73.20;;;;;;5052716;28;20474;-77
2023/09/21 08:54:46;;;;;;;0.25;0.20;;;21.80;73.20;;;;;;5065851;28;20056;-77
2023/09/21 08:57:13;;;;;;;1.05;0.50;;;21.90;73.20;;;;;;5065109;28;20055;-76
2023/09/21 08:59:42;;;;;;;2.60;0.40;;;21.90;73.00;;;;;;5067882;28;20654;-76
2023/09/21 09:02:12;;;;;;;0.63;0.38;;;21.90;73.00;;;;;;5062660;28;20052;-76
2023/09/21 09:04:42;;;;;;;0.30;0.30;;;21.90;73.00;;;;;;5065024;28;20037;-76
2023/09/21 09:07:07;;;;;;;1.25;0.30;;;21.90;73.30;;;;;;5067373;28;20102;-76
2023/09/21 09:09:34;;;;;;;0.57;0.57;;;21.90;73.30;;;;;;5063475;28;20044;-76
2023/09/21 09:12:00;;;;;;;0.68;0.50;;;21.90;72.80;;;;;;5065051;28;20056;-76
2023/09/21 09:14:25;;;;;;;0.40;0.30;;;21.90;72.70;;;;;;5067447;28;20398;-76
2023/09/21 09:16:51;;;;;;;1.05;0.47;;;21.90;73.10;;;;;;5062831;28;20461;-76
2023/09/21 09:19:17;;;;;;;0.77;0.30;;;21.90;73.10;;;;;;5063065;28;20044;-76
2023/09/21 09:21:44;;;;;;;0.60;0.20;;;21.90;73.10;;;;;;5063920;28;20132;-76
2023/09/21 09:24:11;;;;;;;0.63;0.40;;;21.90;73.80;;;;;;5063914;28;20568;-76
2023/09/21 09:26:38;;;;;;;0.30;0.20;;;21.90;73.70;;;;;;5068928;28;20080;-76
2023/09/21 09:29:04;;;;;;;0.20;0.20;;;21.90;73.50;;;;;;5062890;28;20726;-76
2023/09/21 09:31:30;;;;;;;0.38;0.32;;;21.90;73.40;;;;;;5063559;28;20048;-76
2023/09/21 09:33:57;;;;;;;0.45;0.38;;;21.90;73.30;;;;;;5062682;28;20449;-76
2023/09/21 09:36:24;;;;;;;0.50;0.40;;;21.90;73.40;;;;;;5063816;28;20065;-76
2023/09/21 09:38:50;;;;;;;0.50;0.38;;;21.90;73.10;;;;;;5066210;28;20044;-76
2023/09/21 09:41:16;;;;;;;0.30;0.30;;;21.90;73.30;;;;;;5064526;28;20044;-76
2023/09/21 09:43:42;;;;;;;0.30;0.30;;;21.90;73.00;;;;;;5047763;28;20048;-76
2023/09/21 09:46:10;;;;;;;0.47;0.30;;;21.90;73.00;;;;;;5044562;28;20051;-76
2023/09/21 09:48:36;;;;;;;0.45;0.30;;;21.90;73.00;;;;;;5058866;28;20043;-76
2023/09/21 09:51:11;;;;;;;0.73;0.30;;;21.90;73.00;;;;;;5048075;28;20044;-76
2023/09/21 09:53:38;;;;;;;0.30;0.30;;;21.90;73.10;;;;;;5050796;28;20083;-76
2023/09/21 09:56:08;;;;;;;0.40;0.30;;;21.90;73.20;;;;;;5065094;28;20055;-76
2023/09/21 09:58:43;;;;;;;0.30;0.30;;;21.90;73.10;;;;;;5061343;28;20524;-76
2023/09/21 10:01:09;;;;;;;0.20;0.20;;;22.00;73.90;;;;;;5060458;28;20525;-76
2023/09/21 10:03:35;;;;;;;0.25;0.20;;;22.00;73.20;;;;;;5062958;28;20033;-76
2023/09/21 10:06:01;;;;;;;0.50;0.30;;;21.90;73.00;;;;;;5065041;28;20040;-76
2023/09/21 10:08:26;;;;;;;0.50;0.40;;;21.90;73.20;;;;;;5065256;28;20505;-76
2023/09/21 10:10:55;;;;;;;0.65;0.30;;;22.00;73.20;;;;;;5091570;28;20494;-76
2023/09/21 10:13:25;;;;;;;0.82;0.38;;;21.90;73.00;;;;;;5061998;28;20039;-76
2023/09/21 10:16:05;;;;;;;1.88;0.35;;;22.00;73.10;;;;;;5063246;28;20044;-76
2023/09/21 10:18:37;;;;;;;0.43;0.20;;;21.90;72.90;;;;;;5063448;28;20048;-76
2023/09/21 10:21:29;;;;;;;0.98;0.45;;;22.00;72.80;;;;;;5061919;28;20045;-76
2023/09/21 10:24:06;;;;;;;0.47;0.40;;;21.90;72.90;;;;;;5061666;28;20075;-76
2023/09/21 10:26:41;;;;;;;0.22;0.20;;;22.00;73.00;;;;;;5066771;28;20127;-76
2023/09/21 10:29:07;;;;;;;0.50;0.30;;;22.00;73.10;;;;;;5065566;28;20043;-76
2023/09/21 10:31:34;;;;;;;0.47;0.20;;;22.00;72.80;;;;;;5065378;28;20502;-76
2023/09/21 10:34:00;;;;;;;0.43;0.30;;;22.00;73.00;;;;;;5061999;28;20041;-76
2023/09/21 10:36:30;;;;;;;0.40;0.40;;;22.00;72.90;;;;;;5060443;28;20049;-76
2023/09/21 10:39:11;;;;;;;0.40;0.30;;;22.00;72.80;;;;;;5064572;28;20063;-76
2023/09/21 10:41:40;;;;;;;0.60;0.30;;;22.00;72.80;;;;;;5067316;28;20536;-76
2023/09/21 10:44:06;;;;;;;0.40;0.30;;;22.00;72.50;;;;;;5063574;28;20085;-76
2023/09/21 10:46:34;;;;;;;0.75;0.32;;;22.10;72.20;;;;;;5061047;28;20084;-76
2023/09/21 10:49:05;;;;;;;0.73;0.40;;;22.10;72.00;;;;;;5046823;28;20032;-76
2023/09/21 10:51:32;;;;;;;0.65;0.30;;;22.10;71.90;;;;;;5063354;28;20493;-76
2023/09/21 10:54:03;;;;;;;2.35;0.30;;;22.10;72.10;;;;;;5063078;28;20051;-76
2023/09/21 10:56:28;;;;;;;0.60;0.30;;;22.10;72.10;;;;;;5065241;28;20045;-76
2023/09/21 10:58:54;;;;;;;0.52;0.38;;;22.10;72.20;;;;;;5062344;28;20044;-76
2023/09/21 11:01:21;;;;;;;0.40;0.30;;;22.10;72.10;;;;;;5061560;28;20047;-76
2023/09/21 11:03:48;;;;;;;0.55;0.47;;;22.10;72.00;;;;;;5056959;28;20045;-76
2023/09/21 11:06:16;;;;;;;0.47;0.47;;;22.10;72.00;;;;;;5056165;28;20067;-76
2023/09/21 11:08:42;;;;;;;0.57;0.40;;;22.10;72.00;;;;;;5062235;28;20049;-76
2023/09/21 11:11:08;;;;;;;0.25;0.22;;;22.10;72.00;;;;;;5065515;28;20032;-77
2023/09/21 11:13:33;;;;;;;0.22;0.22;;;22.10;72.70;;;;;;5064729;28;20041;-76
2023/09/21 11:15:59;;;;;;;2.30;0.35;;;22.20;71.80;;;;;;5064384;28;20040;-76
2023/09/21 11:18:24;;;;;;;0.47;0.40;;;22.20;71.80;;;;;;5061655;28;20419;-76
2023/09/21 11:20:50;;;;;;;1.20;0.30;;;22.20;71.80;;;;;;5064131;28;20128;-76
2023/09/21 11:23:18;;;;;;;0.30;0.30;;;22.20;71.90;;;;;;5065305;28;20078;-76
2023/09/21 11:25:47;;;;;;;0.20;0.20;;;22.20;71.70;;;;;;5055773;28;20044;-76
2023/09/21 11:28:13;;;;;;;0.43;0.40;;;22.20;71.60;;;;;;4349588;28;10000060;-76
2023/09/21 11:30:42;;;;;;;0.70;0.40;;;22.20;71.50;;;;;;5055465;28;20148;-74
2023/09/21 11:33:08;;;;;;;0.85;0.40;;;22.20;71.80;;;;;;5054744;28;20040;-75
2023/09/21 11:35:34;;;;;;;1.17;0.50;;;22.20;71.90;;;;;;5056117;28;20086;-76
2023/09/21 11:37:59;;;;;;;1.00;0.50;;;22.20;70.70;;;;;;5057416;28;20040;-76
2023/09/21 11:40:26;;;;;;;2.38;0.70;;;22.10;70.00;;;;;;5059353;28;20502;-76
2023/09/21 11:42:56;;;;;;;2.13;0.68;;;22.10;69.00;;;;;;5041644;28;20057;-76
2023/09/21 11:45:24;;;;;;;1.90;1.05;;;22.00;69.70;;;;;;5051971;28;20054;-75
2023/09/21 11:47:54;;;;;;;1.73;0.88;;;21.90;68.90;;;;;;5071643;28;20049;-76
2023/09/21 11:50:31;;;;;;;0.70;0.40;;;21.90;68.60;;;;;;5057052;28;20481;-76
2023/09/21 11:52:56;;;;;;;1.00;0.60;;;21.80;70.10;;;;;;5021338;28;20641;-78
2023/09/21 11:55:29;;;;;;;1.05;0.55;;;21.80;71.60;;;;;;5056417;28;20044;-78
2023/09/21 11:58:11;;;;;;;1.03;0.40;;;21.90;70.90;;;;;;5055912;28;20286;-78
2023/09/21 12:00:43;;;;;;;1.02;0.65;;;22.00;71.50;;;;;;5056801;28;20040;-78
2023/09/21 12:03:23;;;;;;;0.40;0.40;;;22.00;71.40;;;;;;5061829;28;20047;-78
2023/09/21 12:05:48;;;;;;;0.90;0.50;;;22.00;71.50;;;;;;5057435;28;20052;-79
2023/09/21 12:08:14;;;;;;;1.05;0.50;;;22.00;71.70;;;;;;5059367;28;20037;-78
2023/09/21 12:10:41;;;;;;;1.48;0.60;;;22.00;71.80;;;;;;5043245;28;20058;-78
2023/09/21 12:13:11;;;;;;;1.60;0.85;;;22.00;71.60;;;;;;5058134;28;20060;-78
2023/09/21 12:15:40;;;;;;;0.55;0.50;;;22.10;71.40;;;;;;5055067;28;20072;-78
2023/09/21 12:18:07;;;;;;;1.13;0.40;;;22.10;71.00;;;;;;5054838;28;20569;-78
2023/09/21 12:20:33;;;;;;;0.85;0.40;;;22.10;71.10;;;;;;5044130;28;20040;-79
2023/09/21 12:22:59;;;;;;;0.77;0.43;;;22.10;71.10;;;;;;5056399;28;20083;-78
2023/09/21 12:25:25;;;;;;;0.65;0.30;;;22.10;71.00;;;;;;5053702;28;20127;-79
2023/09/21 12:27:51;;;;;;;0.77;0.40;;;22.10;70.90;;;;;;5058144;28;20044;-78
2023/09/21 12:30:17;;;;;;;1.25;0.40;;;22.10;70.70;;;;;;5056226;28;20598;-78
2023/09/21 12:32:43;;;;;;;0.40;0.40;;;22.10;70.70;;;;;;5066430;28;20040;-78
2023/09/21 12:35:09;;;;;;;0.50;0.40;;;22.10;70.70;;;;;;5060599;28;20062;-78
2023/09/21 12:37:36;;;;;;;0.32;0.30;;;22.10;71.10;;;;;;5056807;28;20044;-78
2023/09/21 12:40:07;;;;;;;0.50;0.50;;;22.10;70.80;;;;;;5058953;28;20426;-79
2023/09/21 12:42:32;;;;;;;0.98;0.45;;;22.10;71.00;;;;;;5053567;28;20045;-78
2023/09/21 12:44:58;;;;;;;0.70;0.47;;;22.10;70.90;;;;;;5056752;28;20431;-79